sensor_id;sensor_type;location;lat;lon;timestamp;P1;durP1;ratioP1;P2;durP2;ratioP2
2107;SDS011;1060;52.492;13.388;2023-08-06T00:00:50;11.63;;;10.80;;
2107;SDS011;1060;52.492;13.388;2023-08-06T00:03:16;14.50;;;13.23;;
2107;SDS011;1060;52.492;13.388;2023-08-06T00:05:42;12.73;;;11.63;;
2107;SDS011;1060;52.492;13.388;2023-08-06T00:08:09;10.57;;;9.80;;
2107;SDS011;1060;52.492;13.388;2023-08-06T00:10:35;12.47;;;11.47;;
2107;SDS011;1060;52.492;13.388;2023-08-06T00:13:01;15.23;;;13.97;;
2107;SDS011;1060;52.492;13.388;2023-08-06T00:15:27;13.30;;;12.23;;
2107;SDS011;1060;52.492;13.388;2023-08-06T00:17:53;11.60;;;10.60;;
2107;SDS011;1060;52.492;13.388;2023-08-06T00:20:19;11.53;;;10.43;;
2107;SDS011;1060;52.492;13.388;2023-08-06T00:22:46;12.07;;;10.90;;
2107;SDS011;1060;52.492;13.388;2023-08-06T00:25:12;16.90;;;15.30;;
2107;SDS011;1060;52.492;13.388;2023-08-06T00:27:38;13.63;;;12.40;;
2107;SDS011;1060;52.492;13.388;2023-08-06T00:30:04;12.73;;;11.63;;
2107;SDS011;1060;52.492;13.388;2023-08-06T00:32:30;14.07;;;12.93;;
2107;SDS011;1060;52.492;13.388;2023-08-06T00:34:57;11.63;;;10.80;;
2107;SDS011;1060;52.492;13.388;2023-08-06T00:37:23;12.17;;;11.27;;
2107;SDS011;1060;52.492;13.388;2023-08-06T00:39:49;13.50;;;12.30;;
2107;SDS011;1060;52.492;13.388;2023-08-06T00:42:15;13.47;;;12.07;;
2107;SDS011;1060;52.492;13.388;2023-08-06T00:44:45;11.73;;;10.60;;
2107;SDS011;1060;52.492;13.388;2023-08-06T00:47:11;11.13;;;10.33;;
2107;SDS011;1060;52.492;13.388;2023-08-06T00:49:37;12.47;;;11.37;;
2107;SDS011;1060;52.492;13.388;2023-08-06T00:54:55;12.30;;;11.20;;
2107;SDS011;1060;52.492;13.388;2023-08-06T00:57:22;13.13;;;11.70;;
2107;SDS011;1060;52.492;13.388;2023-08-06T01:00:13;12.67;;;11.67;;
2107;SDS011;1060;52.492;13.388;2023-08-06T01:02:39;13.53;;;12.60;;
2107;SDS011;1060;52.492;13.388;2023-08-06T01:05:06;12.37;;;11.43;;
2107;SDS011;1060;52.492;13.388;2023-08-06T01:10:11;15.60;;;14.30;;
2107;SDS011;1060;52.492;13.388;2023-08-06T01:15:18;19.43;;;17.60;;
2107;SDS011;1060;52.492;13.388;2023-08-06T01:17:45;14.33;;;12.50;;
2107;SDS011;1060;52.492;13.388;2023-08-06T01:20:11;10.23;;;9.60;;
2107;SDS011;1060;52.492;13.388;2023-08-06T01:22:37;11.20;;;10.27;;
2107;SDS011;1060;52.492;13.388;2023-08-06T01:25:04;11.57;;;10.77;;
2107;SDS011;1060;52.492;13.388;2023-08-06T01:27:49;12.93;;;11.73;;
2107;SDS011;1060;52.492;13.388;2023-08-06T01:30:16;14.30;;;13.10;;
2107;SDS011;1060;52.492;13.388;2023-08-06T01:32:44;12.37;;;11.47;;
2107;SDS011;1060;52.492;13.388;2023-08-06T01:35:12;11.97;;;10.93;;
2107;SDS011;1060;52.492;13.388;2023-08-06T01:37:38;11.83;;;10.83;;
2107;SDS011;1060;52.492;13.388;2023-08-06T01:40:06;14.07;;;12.90;;
2107;SDS011;1060;52.492;13.388;2023-08-06T01:42:32;12.53;;;11.53;;
2107;SDS011;1060;52.492;13.388;2023-08-06T01:44:58;13.07;;;11.97;;
2107;SDS011;1060;52.492;13.388;2023-08-06T01:47:27;11.07;;;10.23;;
2107;SDS011;1060;52.492;13.388;2023-08-06T01:49:53;12.23;;;11.23;;
2107;SDS011;1060;52.492;13.388;2023-08-06T01:52:19;13.33;;;12.20;;
2107;SDS011;1060;52.492;13.388;2023-08-06T01:54:45;13.30;;;12.40;;
2107;SDS011;1060;52.492;13.388;2023-08-06T01:57:11;13.00;;;12.00;;
2107;SDS011;1060;52.492;13.388;2023-08-06T01:59:37;14.47;;;13.10;;
2107;SDS011;1060;52.492;13.388;2023-08-06T02:02:04;15.07;;;13.87;;
2107;SDS011;1060;52.492;13.388;2023-08-06T02:04:30;14.53;;;13.43;;
2107;SDS011;1060;52.492;13.388;2023-08-06T02:06:56;13.30;;;12.27;;
2107;SDS011;1060;52.492;13.388;2023-08-06T02:09:22;13.60;;;12.60;;
2107;SDS011;1060;52.492;13.388;2023-08-06T02:11:48;12.97;;;11.97;;
2107;SDS011;1060;52.492;13.388;2023-08-06T02:14:15;14.43;;;13.40;;
2107;SDS011;1060;52.492;13.388;2023-08-06T02:16:41;14.87;;;13.47;;
2107;SDS011;1060;52.492;13.388;2023-08-06T02:19:07;14.00;;;12.90;;
2107;SDS011;1060;52.492;13.388;2023-08-06T02:21:33;12.23;;;11.33;;
2107;SDS011;1060;52.492;13.388;2023-08-06T02:23:59;13.23;;;12.23;;
2107;SDS011;1060;52.492;13.388;2023-08-06T02:26:26;12.40;;;11.53;;
2107;SDS011;1060;52.492;13.388;2023-08-06T02:28:54;12.73;;;11.73;;
2107;SDS011;1060;52.492;13.388;2023-08-06T02:31:21;16.53;;;15.40;;
2107;SDS011;1060;52.492;13.388;2023-08-06T02:33:47;13.57;;;12.57;;
2107;SDS011;1060;52.492;13.388;2023-08-06T02:36:13;13.50;;;12.40;;
2107;SDS011;1060;52.492;13.388;2023-08-06T02:38:39;14.23;;;13.23;;
2107;SDS011;1060;52.492;13.388;2023-08-06T02:41:06;12.23;;;11.10;;
2107;SDS011;1060;52.492;13.388;2023-08-06T02:43:32;15.10;;;13.87;;
2107;SDS011;1060;52.492;13.388;2023-08-06T02:46:00;13.77;;;12.60;;
2107;SDS011;1060;52.492;13.388;2023-08-06T02:48:27;13.27;;;12.27;;
2107;SDS011;1060;52.492;13.388;2023-08-06T02:50:56;12.17;;;11.07;;
2107;SDS011;1060;52.492;13.388;2023-08-06T02:53:24;13.00;;;11.97;;
2107;SDS011;1060;52.492;13.388;2023-08-06T02:55:50;13.70;;;12.60;;
2107;SDS011;1060;52.492;13.388;2023-08-06T02:58:21;15.63;;;14.43;;
2107;SDS011;1060;52.492;13.388;2023-08-06T03:01:00;13.50;;;12.60;;
2107;SDS011;1060;52.492;13.388;2023-08-06T03:03:29;14.03;;;12.73;;
2107;SDS011;1060;52.492;13.388;2023-08-06T03:05:58;15.63;;;14.33;;
2107;SDS011;1060;52.492;13.388;2023-08-06T03:08:36;16.40;;;15.10;;
2107;SDS011;1060;52.492;13.388;2023-08-06T03:11:02;13.47;;;12.23;;
2107;SDS011;1060;52.492;13.388;2023-08-06T03:13:29;14.37;;;12.57;;
2107;SDS011;1060;52.492;13.388;2023-08-06T03:15:56;15.27;;;14.07;;
2107;SDS011;1060;52.492;13.388;2023-08-06T03:18:24;18.13;;;16.57;;
2107;SDS011;1060;52.492;13.388;2023-08-06T03:20:56;19.43;;;17.63;;
2107;SDS011;1060;52.492;13.388;2023-08-06T03:23:23;26.50;;;24.30;;
2107;SDS011;1060;52.492;13.388;2023-08-06T03:25:50;15.43;;;14.13;;
2107;SDS011;1060;52.492;13.388;2023-08-06T03:28:16;15.07;;;13.73;;
2107;SDS011;1060;52.492;13.388;2023-08-06T03:30:42;14.33;;;13.23;;
2107;SDS011;1060;52.492;13.388;2023-08-06T03:33:11;16.13;;;14.80;;
2107;SDS011;1060;52.492;13.388;2023-08-06T03:35:37;13.77;;;12.63;;
2107;SDS011;1060;52.492;13.388;2023-08-06T03:38:04;12.80;;;11.83;;
2107;SDS011;1060;52.492;13.388;2023-08-06T03:40:30;12.83;;;11.87;;
2107;SDS011;1060;52.492;13.388;2023-08-06T03:42:58;13.07;;;12.17;;
2107;SDS011;1060;52.492;13.388;2023-08-06T03:45:24;13.00;;;12.10;;
2107;SDS011;1060;52.492;13.388;2023-08-06T03:47:50;14.70;;;13.27;;
2107;SDS011;1060;52.492;13.388;2023-08-06T03:50:17;13.43;;;12.53;;
2107;SDS011;1060;52.492;13.388;2023-08-06T03:52:43;12.30;;;11.30;;
2107;SDS011;1060;52.492;13.388;2023-08-06T03:55:10;17.03;;;15.77;;
2107;SDS011;1060;52.492;13.388;2023-08-06T03:57:37;12.20;;;11.23;;
2107;SDS011;1060;52.492;13.388;2023-08-06T04:00:03;10.97;;;10.07;;
2107;SDS011;1060;52.492;13.388;2023-08-06T04:02:40;14.97;;;13.77;;
2107;SDS011;1060;52.492;13.388;2023-08-06T04:05:08;12.13;;;11.17;;
2107;SDS011;1060;52.492;13.388;2023-08-06T04:07:37;11.50;;;10.50;;
2107;SDS011;1060;52.492;13.388;2023-08-06T04:10:04;10.80;;;10.00;;
2107;SDS011;1060;52.492;13.388;2023-08-06T04:12:30;11.97;;;10.87;;
2107;SDS011;1060;52.492;13.388;2023-08-06T04:14:58;11.70;;;10.60;;
2107;SDS011;1060;52.492;13.388;2023-08-06T04:17:24;10.90;;;10.00;;
2107;SDS011;1060;52.492;13.388;2023-08-06T04:19:51;10.23;;;9.40;;
2107;SDS011;1060;52.492;13.388;2023-08-06T04:22:21;11.80;;;11.00;;
2107;SDS011;1060;52.492;13.388;2023-08-06T04:24:47;9.50;;;8.70;;
2107;SDS011;1060;52.492;13.388;2023-08-06T04:27:14;10.13;;;9.33;;
2107;SDS011;1060;52.492;13.388;2023-08-06T04:29:42;10.57;;;9.80;;
2107;SDS011;1060;52.492;13.388;2023-08-06T04:32:09;9.97;;;9.27;;
2107;SDS011;1060;52.492;13.388;2023-08-06T04:34:40;9.33;;;8.63;;
2107;SDS011;1060;52.492;13.388;2023-08-06T04:37:06;10.93;;;9.97;;
2107;SDS011;1060;52.492;13.388;2023-08-06T04:39:33;9.20;;;8.50;;
2107;SDS011;1060;52.492;13.388;2023-08-06T04:41:59;9.27;;;8.33;;
2107;SDS011;1060;52.492;13.388;2023-08-06T04:44:26;8.70;;;8.10;;
2107;SDS011;1060;52.492;13.388;2023-08-06T04:46:53;8.67;;;7.97;;
2107;SDS011;1060;52.492;13.388;2023-08-06T04:49:22;9.50;;;8.70;;
2107;SDS011;1060;52.492;13.388;2023-08-06T04:51:49;8.80;;;8.10;;
2107;SDS011;1060;52.492;13.388;2023-08-06T04:54:15;10.03;;;9.07;;
2107;SDS011;1060;52.492;13.388;2023-08-06T04:56:41;8.90;;;8.20;;
2107;SDS011;1060;52.492;13.388;2023-08-06T04:59:07;9.37;;;8.67;;
2107;SDS011;1060;52.492;13.388;2023-08-06T05:01:34;10.10;;;8.47;;
2107;SDS011;1060;52.492;13.388;2023-08-06T05:04:00;8.80;;;8.20;;
2107;SDS011;1060;52.492;13.388;2023-08-06T05:06:26;8.10;;;7.50;;
2107;SDS011;1060;52.492;13.388;2023-08-06T05:08:52;8.67;;;8.07;;
2107;SDS011;1060;52.492;13.388;2023-08-06T05:11:18;7.50;;;7.00;;
2107;SDS011;1060;52.492;13.388;2023-08-06T05:13:44;8.40;;;7.70;;
2107;SDS011;1060;52.492;13.388;2023-08-06T05:16:13;10.23;;;9.43;;
2107;SDS011;1060;52.492;13.388;2023-08-06T05:18:40;8.73;;;8.00;;
2107;SDS011;1060;52.492;13.388;2023-08-06T05:21:07;8.83;;;8.03;;
2107;SDS011;1060;52.492;13.388;2023-08-06T05:23:33;8.97;;;8.17;;
2107;SDS011;1060;52.492;13.388;2023-08-06T05:25:59;7.87;;;7.37;;
2107;SDS011;1060;52.492;13.388;2023-08-06T05:28:25;6.60;;;6.10;;
2107;SDS011;1060;52.492;13.388;2023-08-06T05:30:52;10.33;;;8.57;;
2107;SDS011;1060;52.492;13.388;2023-08-06T05:33:18;8.47;;;7.80;;
2107;SDS011;1060;52.492;13.388;2023-08-06T05:35:44;7.77;;;7.17;;
2107;SDS011;1060;52.492;13.388;2023-08-06T05:38:13;8.33;;;7.73;;
2107;SDS011;1060;52.492;13.388;2023-08-06T05:40:39;8.50;;;7.90;;
2107;SDS011;1060;52.492;13.388;2023-08-06T05:43:11;9.70;;;8.90;;
2107;SDS011;1060;52.492;13.388;2023-08-06T05:45:37;7.73;;;7.23;;
2107;SDS011;1060;52.492;13.388;2023-08-06T05:48:03;9.63;;;8.83;;
2107;SDS011;1060;52.492;13.388;2023-08-06T05:50:32;8.40;;;7.70;;
2107;SDS011;1060;52.492;13.388;2023-08-06T05:52:58;9.07;;;8.17;;
2107;SDS011;1060;52.492;13.388;2023-08-06T05:55:24;9.23;;;8.53;;
2107;SDS011;1060;52.492;13.388;2023-08-06T05:57:50;8.50;;;7.70;;
2107;SDS011;1060;52.492;13.388;2023-08-06T06:00:22;7.67;;;7.17;;
2107;SDS011;1060;52.492;13.388;2023-08-06T06:02:48;9.53;;;8.83;;
2107;SDS011;1060;52.492;13.388;2023-08-06T06:05:15;9.70;;;9.00;;
2107;SDS011;1060;52.492;13.388;2023-08-06T06:07:41;9.00;;;8.40;;
2107;SDS011;1060;52.492;13.388;2023-08-06T06:10:07;9.50;;;8.70;;
2107;SDS011;1060;52.492;13.388;2023-08-06T06:12:34;15.17;;;13.67;;
2107;SDS011;1060;52.492;13.388;2023-08-06T06:15:00;8.90;;;8.20;;
2107;SDS011;1060;52.492;13.388;2023-08-06T06:17:27;9.93;;;9.10;;
2107;SDS011;1060;52.492;13.388;2023-08-06T06:19:53;9.37;;;8.67;;
2107;SDS011;1060;52.492;13.388;2023-08-06T06:22:19;9.37;;;8.67;;
2107;SDS011;1060;52.492;13.388;2023-08-06T06:24:46;9.43;;;8.80;;
2107;SDS011;1060;52.492;13.388;2023-08-06T06:27:12;8.73;;;8.13;;
2107;SDS011;1060;52.492;13.388;2023-08-06T06:29:41;8.43;;;7.83;;
2107;SDS011;1060;52.492;13.388;2023-08-06T06:32:07;7.90;;;7.30;;
2107;SDS011;1060;52.492;13.388;2023-08-06T06:34:33;8.30;;;7.73;;
2107;SDS011;1060;52.492;13.388;2023-08-06T06:37:00;9.43;;;8.73;;
2107;SDS011;1060;52.492;13.388;2023-08-06T06:39:29;11.53;;;10.63;;
2107;SDS011;1060;52.492;13.388;2023-08-06T06:41:55;8.70;;;7.90;;
2107;SDS011;1060;52.492;13.388;2023-08-06T06:44:30;8.30;;;7.80;;
2107;SDS011;1060;52.492;13.388;2023-08-06T06:46:59;8.20;;;7.50;;
2107;SDS011;1060;52.492;13.388;2023-08-06T06:49:25;8.57;;;7.97;;
2107;SDS011;1060;52.492;13.388;2023-08-06T06:51:51;8.90;;;8.07;;
2107;SDS011;1060;52.492;13.388;2023-08-06T06:54:18;9.10;;;8.50;;
2107;SDS011;1060;52.492;13.388;2023-08-06T06:56:44;10.17;;;9.47;;
2107;SDS011;1060;52.492;13.388;2023-08-06T06:59:11;10.00;;;9.20;;
2107;SDS011;1060;52.492;13.388;2023-08-06T07:01:37;9.83;;;9.13;;
2107;SDS011;1060;52.492;13.388;2023-08-06T07:04:05;10.10;;;9.37;;
2107;SDS011;1060;52.492;13.388;2023-08-06T07:06:31;9.57;;;8.87;;
2107;SDS011;1060;52.492;13.388;2023-08-06T07:08:57;8.80;;;8.20;;
2107;SDS011;1060;52.492;13.388;2023-08-06T07:11:24;8.93;;;8.27;;
2107;SDS011;1060;52.492;13.388;2023-08-06T07:13:50;8.90;;;8.30;;
2107;SDS011;1060;52.492;13.388;2023-08-06T07:16:22;16.60;;;15.20;;
2107;SDS011;1060;52.492;13.388;2023-08-06T07:18:48;9.43;;;8.73;;
2107;SDS011;1060;52.492;13.388;2023-08-06T07:21:14;7.30;;;6.80;;
2107;SDS011;1060;52.492;13.388;2023-08-06T07:23:40;8.33;;;7.73;;
2107;SDS011;1060;52.492;13.388;2023-08-06T07:26:06;8.07;;;7.47;;
2107;SDS011;1060;52.492;13.388;2023-08-06T07:28:32;7.40;;;6.90;;
2107;SDS011;1060;52.492;13.388;2023-08-06T07:30:58;16.27;;;14.87;;
2107;SDS011;1060;52.492;13.388;2023-08-06T07:33:24;8.03;;;7.40;;
2107;SDS011;1060;52.492;13.388;2023-08-06T07:35:50;18.53;;;16.77;;
2107;SDS011;1060;52.492;13.388;2023-08-06T07:38:17;12.93;;;11.93;;
2107;SDS011;1060;52.492;13.388;2023-08-06T07:40:43;9.13;;;7.97;;
2107;SDS011;1060;52.492;13.388;2023-08-06T07:43:09;9.30;;;8.60;;
2107;SDS011;1060;52.492;13.388;2023-08-06T07:45:36;8.87;;;8.17;;
2107;SDS011;1060;52.492;13.388;2023-08-06T07:48:02;9.70;;;9.00;;
2107;SDS011;1060;52.492;13.388;2023-08-06T07:50:29;10.03;;;9.07;;
2107;SDS011;1060;52.492;13.388;2023-08-06T07:52:55;9.33;;;8.63;;
2107;SDS011;1060;52.492;13.388;2023-08-06T07:55:21;9.60;;;8.80;;
2107;SDS011;1060;52.492;13.388;2023-08-06T07:57:48;10.00;;;9.20;;
2107;SDS011;1060;52.492;13.388;2023-08-06T08:00:14;8.67;;;7.97;;
2107;SDS011;1060;52.492;13.388;2023-08-06T08:02:40;9.37;;;8.67;;
2107;SDS011;1060;52.492;13.388;2023-08-06T08:05:06;10.90;;;10.00;;
2107;SDS011;1060;52.492;13.388;2023-08-06T08:07:33;9.20;;;8.50;;
2107;SDS011;1060;52.492;13.388;2023-08-06T08:09:59;10.47;;;9.67;;
2107;SDS011;1060;52.492;13.388;2023-08-06T08:12:25;9.10;;;8.30;;
2107;SDS011;1060;52.492;13.388;2023-08-06T08:14:51;10.67;;;9.77;;
2107;SDS011;1060;52.492;13.388;2023-08-06T08:17:18;10.93;;;10.13;;
2107;SDS011;1060;52.492;13.388;2023-08-06T08:19:44;12.73;;;11.57;;
2107;SDS011;1060;52.492;13.388;2023-08-06T08:22:10;12.17;;;11.27;;
2107;SDS011;1060;52.492;13.388;2023-08-06T08:24:36;14.07;;;12.97;;
2107;SDS011;1060;52.492;13.388;2023-08-06T08:27:03;14.07;;;12.87;;
2107;SDS011;1060;52.492;13.388;2023-08-06T08:29:29;11.93;;;11.00;;
2107;SDS011;1060;52.492;13.388;2023-08-06T08:31:55;12.53;;;11.43;;
2107;SDS011;1060;52.492;13.388;2023-08-06T08:34:22;11.43;;;9.90;;
2107;SDS011;1060;52.492;13.388;2023-08-06T08:36:48;10.50;;;9.70;;
2107;SDS011;1060;52.492;13.388;2023-08-06T08:39:15;14.90;;;13.80;;
2107;SDS011;1060;52.492;13.388;2023-08-06T08:41:41;13.40;;;12.40;;
2107;SDS011;1060;52.492;13.388;2023-08-06T08:44:08;12.03;;;11.13;;
2107;SDS011;1060;52.492;13.388;2023-08-06T08:46:44;13.17;;;12.27;;
2107;SDS011;1060;52.492;13.388;2023-08-06T08:49:13;12.23;;;11.33;;
2107;SDS011;1060;52.492;13.388;2023-08-06T08:51:39;14.10;;;13.07;;
2107;SDS011;1060;52.492;13.388;2023-08-06T08:54:06;13.93;;;12.90;;
2107;SDS011;1060;52.492;13.388;2023-08-06T08:56:33;13.63;;;12.67;;
2107;SDS011;1060;52.492;13.388;2023-08-06T08:58:59;13.00;;;11.90;;
2107;SDS011;1060;52.492;13.388;2023-08-06T09:01:26;16.13;;;14.83;;
2107;SDS011;1060;52.492;13.388;2023-08-06T09:03:53;16.23;;;14.93;;
2107;SDS011;1060;52.492;13.388;2023-08-06T09:06:21;15.10;;;14.00;;
2107;SDS011;1060;52.492;13.388;2023-08-06T09:08:50;17.33;;;15.90;;
2107;SDS011;1060;52.492;13.388;2023-08-06T09:11:20;16.23;;;14.93;;
2107;SDS011;1060;52.492;13.388;2023-08-06T09:13:47;17.00;;;15.60;;
2107;SDS011;1060;52.492;13.388;2023-08-06T09:16:13;14.93;;;13.83;;
2107;SDS011;1060;52.492;13.388;2023-08-06T09:18:39;13.83;;;12.63;;
2107;SDS011;1060;52.492;13.388;2023-08-06T09:21:05;14.33;;;13.13;;
2107;SDS011;1060;52.492;13.388;2023-08-06T09:23:37;14.87;;;13.77;;
2107;SDS011;1060;52.492;13.388;2023-08-06T09:26:04;12.30;;;11.40;;
2107;SDS011;1060;52.492;13.388;2023-08-06T09:28:39;15.80;;;14.53;;
2107;SDS011;1060;52.492;13.388;2023-08-06T09:31:07;14.00;;;12.90;;
2107;SDS011;1060;52.492;13.388;2023-08-06T09:33:35;18.50;;;16.80;;
2107;SDS011;1060;52.492;13.388;2023-08-06T09:36:13;16.70;;;15.43;;
2107;SDS011;1060;52.492;13.388;2023-08-06T09:38:40;17.17;;;15.70;;
2107;SDS011;1060;52.492;13.388;2023-08-06T09:41:09;14.80;;;13.60;;
2107;SDS011;1060;52.492;13.388;2023-08-06T09:43:39;14.33;;;13.13;;
2107;SDS011;1060;52.492;13.388;2023-08-06T09:46:13;15.57;;;14.37;;
2107;SDS011;1060;52.492;13.388;2023-08-06T09:48:39;18.07;;;16.67;;
2107;SDS011;1060;52.492;13.388;2023-08-06T09:51:07;19.70;;;18.00;;
2107;SDS011;1060;52.492;13.388;2023-08-06T09:53:35;19.73;;;17.93;;
2107;SDS011;1060;52.492;13.388;2023-08-06T09:56:01;19.40;;;17.70;;
2107;SDS011;1060;52.492;13.388;2023-08-06T09:58:29;20.83;;;19.10;;
2107;SDS011;1060;52.492;13.388;2023-08-06T10:00:56;18.23;;;16.53;;
2107;SDS011;1060;52.492;13.388;2023-08-06T10:03:23;19.73;;;18.23;;
2107;SDS011;1060;52.492;13.388;2023-08-06T10:05:49;19.77;;;18.00;;
2107;SDS011;1060;52.492;13.388;2023-08-06T10:08:15;17.63;;;16.20;;
2107;SDS011;1060;52.492;13.388;2023-08-06T10:10:41;16.47;;;15.13;;
2107;SDS011;1060;52.492;13.388;2023-08-06T10:13:11;19.73;;;18.07;;
2107;SDS011;1060;52.492;13.388;2023-08-06T10:15:39;18.33;;;16.73;;
2107;SDS011;1060;52.492;13.388;2023-08-06T10:18:05;19.20;;;17.60;;
2107;SDS011;1060;52.492;13.388;2023-08-06T10:20:34;21.60;;;19.70;;
2107;SDS011;1060;52.492;13.388;2023-08-06T10:23:00;22.37;;;20.37;;
2107;SDS011;1060;52.492;13.388;2023-08-06T10:25:29;21.57;;;18.87;;
2107;SDS011;1060;52.492;13.388;2023-08-06T10:27:56;22.90;;;20.60;;
2107;SDS011;1060;52.492;13.388;2023-08-06T10:30:29;22.73;;;20.93;;
2107;SDS011;1060;52.492;13.388;2023-08-06T10:32:57;23.67;;;21.60;;
2107;SDS011;1060;52.492;13.388;2023-08-06T10:35:29;22.27;;;20.17;;
2107;SDS011;1060;52.492;13.388;2023-08-06T10:37:59;24.70;;;22.43;;
2107;SDS011;1060;52.492;13.388;2023-08-06T10:40:27;24.23;;;22.00;;
2107;SDS011;1060;52.492;13.388;2023-08-06T10:42:55;25.77;;;23.80;;
2107;SDS011;1060;52.492;13.388;2023-08-06T10:45:21;25.70;;;23.33;;
2107;SDS011;1060;52.492;13.388;2023-08-06T10:47:49;23.03;;;21.13;;
2107;SDS011;1060;52.492;13.388;2023-08-06T10:50:15;24.03;;;21.90;;
2107;SDS011;1060;52.492;13.388;2023-08-06T10:55:30;25.67;;;23.47;;
2107;SDS011;1060;52.492;13.388;2023-08-06T10:57:59;21.83;;;19.73;;
2107;SDS011;1060;52.492;13.388;2023-08-06T11:00:25;17.93;;;16.43;;
2107;SDS011;1060;52.492;13.388;2023-08-06T11:02:52;15.53;;;14.40;;
2107;SDS011;1060;52.492;13.388;2023-08-06T11:05:18;16.37;;;15.13;;
2107;SDS011;1060;52.492;13.388;2023-08-06T11:07:45;15.60;;;14.50;;
2107;SDS011;1060;52.492;13.388;2023-08-06T11:10:13;17.63;;;16.03;;
2107;SDS011;1060;52.492;13.388;2023-08-06T11:12:39;16.90;;;15.50;;
2107;SDS011;1060;52.492;13.388;2023-08-06T11:15:06;15.33;;;14.00;;
2107;SDS011;1060;52.492;13.388;2023-08-06T11:17:36;16.47;;;14.93;;
2107;SDS011;1060;52.492;13.388;2023-08-06T11:20:03;16.40;;;15.10;;
2107;SDS011;1060;52.492;13.388;2023-08-06T11:22:29;18.67;;;17.27;;
2107;SDS011;1060;52.492;13.388;2023-08-06T11:24:56;14.80;;;13.63;;
2107;SDS011;1060;52.492;13.388;2023-08-06T11:27:22;15.50;;;14.30;;
2107;SDS011;1060;52.492;13.388;2023-08-06T11:29:48;16.53;;;15.13;;
2107;SDS011;1060;52.492;13.388;2023-08-06T11:32:14;15.20;;;14.00;;
2107;SDS011;1060;52.492;13.388;2023-08-06T11:34:40;16.43;;;15.00;;
2107;SDS011;1060;52.492;13.388;2023-08-06T11:37:07;16.07;;;14.77;;
2107;SDS011;1060;52.492;13.388;2023-08-06T11:39:37;21.00;;;19.20;;
2107;SDS011;1060;52.492;13.388;2023-08-06T11:42:04;17.60;;;16.10;;
2107;SDS011;1060;52.492;13.388;2023-08-06T11:44:31;19.93;;;18.30;;
2107;SDS011;1060;52.492;13.388;2023-08-06T11:47:02;17.73;;;16.40;;
2107;SDS011;1060;52.492;13.388;2023-08-06T11:49:37;17.07;;;15.63;;
2107;SDS011;1060;52.492;13.388;2023-08-06T11:52:10;16.80;;;15.50;;
2107;SDS011;1060;52.492;13.388;2023-08-06T11:54:37;13.83;;;12.73;;
2107;SDS011;1060;52.492;13.388;2023-08-06T11:57:05;16.23;;;15.03;;
2107;SDS011;1060;52.492;13.388;2023-08-06T11:59:31;16.10;;;14.80;;
2107;SDS011;1060;52.492;13.388;2023-08-06T12:01:58;17.27;;;15.70;;
2107;SDS011;1060;52.492;13.388;2023-08-06T12:04:26;16.83;;;15.53;;
2107;SDS011;1060;52.492;13.388;2023-08-06T12:06:52;30.27;;;27.53;;
2107;SDS011;1060;52.492;13.388;2023-08-06T12:09:18;16.43;;;15.33;;
2107;SDS011;1060;52.492;13.388;2023-08-06T12:11:45;14.90;;;13.80;;
2107;SDS011;1060;52.492;13.388;2023-08-06T12:14:17;15.03;;;13.83;;
2107;SDS011;1060;52.492;13.388;2023-08-06T12:16:45;14.60;;;13.50;;
2107;SDS011;1060;52.492;13.388;2023-08-06T12:19:12;15.97;;;14.77;;
2107;SDS011;1060;52.492;13.388;2023-08-06T12:21:38;27.50;;;24.63;;
2107;SDS011;1060;52.492;13.388;2023-08-06T12:24:04;16.67;;;15.40;;
2107;SDS011;1060;52.492;13.388;2023-08-06T12:26:34;18.20;;;16.73;;
2107;SDS011;1060;52.492;13.388;2023-08-06T12:29:01;19.30;;;17.50;;
2107;SDS011;1060;52.492;13.388;2023-08-06T12:31:27;22.63;;;20.73;;
2107;SDS011;1060;52.492;13.388;2023-08-06T12:33:54;27.60;;;25.37;;
2107;SDS011;1060;52.492;13.388;2023-08-06T12:36:20;28.63;;;26.33;;
2107;SDS011;1060;52.492;13.388;2023-08-06T12:38:51;30.40;;;27.70;;
2107;SDS011;1060;52.492;13.388;2023-08-06T12:41:18;20.83;;;19.03;;
2107;SDS011;1060;52.492;13.388;2023-08-06T12:43:44;21.63;;;19.70;;
2107;SDS011;1060;52.492;13.388;2023-08-06T12:46:10;20.43;;;18.73;;
2107;SDS011;1060;52.492;13.388;2023-08-06T12:48:37;17.67;;;16.27;;
2107;SDS011;1060;52.492;13.388;2023-08-06T12:51:09;20.40;;;18.60;;
2107;SDS011;1060;52.492;13.388;2023-08-06T13:11:12;14.63;;;13.50;;
2107;SDS011;1060;52.492;13.388;2023-08-06T13:22:58;21.20;;;18.23;;
2107;SDS011;1060;52.492;13.388;2023-08-06T13:25:26;18.87;;;17.20;;
2107;SDS011;1060;52.492;13.388;2023-08-06T13:27:56;19.57;;;17.67;;
2107;SDS011;1060;52.492;13.388;2023-08-06T13:30:37;21.10;;;19.27;;
2107;SDS011;1060;52.492;13.388;2023-08-06T13:41:36;17.73;;;15.93;;
2107;SDS011;1060;52.492;13.388;2023-08-06T13:48:10;17.33;;;15.90;;
2107;SDS011;1060;52.492;13.388;2023-08-06T13:50:43;17.23;;;15.80;;
2107;SDS011;1060;52.492;13.388;2023-08-06T13:53:22;16.63;;;15.27;;
2107;SDS011;1060;52.492;13.388;2023-08-06T14:02:17;16.30;;;14.47;;
2107;SDS011;1060;52.492;13.388;2023-08-06T14:04:46;16.63;;;15.23;;
2107;SDS011;1060;52.492;13.388;2023-08-06T14:07:12;18.90;;;17.23;;
2107;SDS011;1060;52.492;13.388;2023-08-06T14:09:39;18.43;;;17.03;;
2107;SDS011;1060;52.492;13.388;2023-08-06T14:12:14;15.80;;;14.33;;
2107;SDS011;1060;52.492;13.388;2023-08-06T14:28:06;14.33;;;12.73;;
2107;SDS011;1060;52.492;13.388;2023-08-06T14:30:36;12.00;;;9.83;;
2107;SDS011;1060;52.492;13.388;2023-08-06T14:33:05;16.80;;;13.30;;
2107;SDS011;1060;52.492;13.388;2023-08-06T14:35:34;13.10;;;12.00;;
2107;SDS011;1060;52.492;13.388;2023-08-06T14:38:01;20.30;;;12.23;;
2107;SDS011;1060;52.492;13.388;2023-08-06T14:40:32;13.30;;;12.10;;
2107;SDS011;1060;52.492;13.388;2023-08-06T14:43:26;13.17;;;11.87;;
2107;SDS011;1060;52.492;13.388;2023-08-06T14:48:54;14.40;;;13.00;;
2107;SDS011;1060;52.492;13.388;2023-08-06T14:54:38;14.30;;;13.10;;
2107;SDS011;1060;52.492;13.388;2023-08-06T14:57:09;14.80;;;13.20;;
2107;SDS011;1060;52.492;13.388;2023-08-06T15:00:01;20.20;;;17.03;;
2107;SDS011;1060;52.492;13.388;2023-08-06T15:02:31;16.97;;;15.50;;
2107;SDS011;1060;52.492;13.388;2023-08-06T15:04:57;20.37;;;18.63;;
2107;SDS011;1060;52.492;13.388;2023-08-06T15:07:30;18.70;;;14.60;;
2107;SDS011;1060;52.492;13.388;2023-08-06T15:10:13;16.70;;;15.20;;
2107;SDS011;1060;52.492;13.388;2023-08-06T15:12:45;15.70;;;14.37;;
2107;SDS011;1060;52.492;13.388;2023-08-06T15:15:15;21.20;;;19.33;;
2107;SDS011;1060;52.492;13.388;2023-08-06T15:18:06;13.83;;;12.70;;
2107;SDS011;1060;52.492;13.388;2023-08-06T15:20:39;15.90;;;14.50;;
2107;SDS011;1060;52.492;13.388;2023-08-06T15:23:08;14.13;;;12.83;;
2107;SDS011;1060;52.492;13.388;2023-08-06T15:25:41;19.33;;;17.50;;
2107;SDS011;1060;52.492;13.388;2023-08-06T15:28:08;9.20;;;8.40;;
2107;SDS011;1060;52.492;13.388;2023-08-06T15:33:43;8.20;;;7.40;;
2107;SDS011;1060;52.492;13.388;2023-08-06T15:36:09;7.83;;;7.23;;
2107;SDS011;1060;52.492;13.388;2023-08-06T15:38:47;6.43;;;5.83;;
2107;SDS011;1060;52.492;13.388;2023-08-06T15:41:13;5.50;;;5.00;;
2107;SDS011;1060;52.492;13.388;2023-08-06T15:43:59;5.97;;;5.37;;
2107;SDS011;1060;52.492;13.388;2023-08-06T15:46:32;5.53;;;5.03;;
2107;SDS011;1060;52.492;13.388;2023-08-06T15:52:39;5.87;;;5.30;;
2107;SDS011;1060;52.492;13.388;2023-08-06T15:55:06;5.67;;;5.17;;
2107;SDS011;1060;52.492;13.388;2023-08-06T16:17:36;8.20;;;7.60;;
2107;SDS011;1060;52.492;13.388;2023-08-06T16:20:10;8.33;;;7.60;;
2107;SDS011;1060;52.492;13.388;2023-08-06T16:22:40;8.87;;;7.97;;
2107;SDS011;1060;52.492;13.388;2023-08-06T16:25:06;12.27;;;11.20;;
2107;SDS011;1060;52.492;13.388;2023-08-06T16:27:40;7.17;;;6.27;;